createdAt,value
2022-10-20T00:00:05.120Z,97.91
2022-10-20T00:01:05.138Z,97.91
2022-10-20T00:02:05.101Z,97.91
2022-10-20T00:03:05.126Z,97.81
2022-10-20T00:04:05.088Z,97.81
2022-10-20T00:05:05.068Z,97.91
2022-10-20T00:06:05.077Z,97.86
2022-10-20T00:07:05.071Z,97.96
2022-10-20T00:08:05.031Z,98.06
2022-10-20T00:09:05.094Z,98.27
2022-10-20T00:10:05.021Z,98.37
2022-10-20T00:11:05.039Z,98.58
2022-10-20T00:12:04.989Z,98.68
2022-10-20T00:13:04.980Z,98.58
2022-10-20T00:14:04.970Z,98.58
2022-10-20T00:15:04.960Z,98.58
2022-10-20T00:16:04.971Z,98.37
2022-10-20T00:17:04.950Z,98.47
2022-10-20T00:18:04.928Z,98.37
2022-10-20T00:19:04.920Z,98.47
2022-10-20T00:20:04.947Z,98.37
2022-10-20T00:21:04.919Z,98.47
2022-10-20T00:22:04.879Z,98.47
2022-10-20T00:23:04.877Z,98.37
2022-10-20T00:24:04.870Z,98.37
2022-10-20T00:25:04.859Z,98.37
2022-10-20T00:26:04.850Z,98.47
2022-10-20T00:27:04.860Z,98.68
2022-10-20T00:28:04.820Z,98.68
2022-10-20T00:29:04.854Z,98.83
2022-10-20T00:30:04.798Z,98.93
2022-10-20T00:31:04.791Z,98.93
2022-10-20T00:32:04.800Z,99.14
2022-10-20T00:33:04.780Z,99.34
2022-10-20T00:34:04.751Z,99.44
2022-10-20T00:35:04.750Z,99.55
2022-10-20T00:36:04.731Z,99.65
2022-10-20T00:37:04.730Z,99.76
2022-10-20T00:38:04.738Z,99.65
2022-10-20T00:39:04.702Z,99.65
2022-10-20T00:40:04.690Z,99.65
2022-10-20T00:41:04.685Z,99.80
2022-10-20T00:42:04.690Z,99.96
2022-10-20T00:43:04.683Z,99.96
2022-10-20T00:44:04.643Z,99.76
2022-10-20T00:45:04.639Z,99.76
2022-10-20T00:46:04.624Z,99.76
2022-10-20T00:47:04.640Z,99.76
2022-10-20T00:48:04.611Z,99.55
2022-10-20T00:49:04.590Z,99.44
2022-10-20T00:50:04.582Z,99.44
2022-10-20T00:51:04.570Z,99.44
2022-10-20T00:52:04.571Z,99.55
2022-10-20T00:53:04.569Z,99.55
2022-10-20T00:54:04.535Z,99.44
2022-10-20T00:55:04.531Z,99.55
2022-10-20T00:56:04.525Z,99.55
2022-10-20T00:57:04.507Z,99.44
2022-10-20T00:58:04.520Z,99.44
2022-10-20T00:59:04.500Z,99.44
2022-10-20T01:00:04.470Z,99.44
2022-10-20T01:01:04.461Z,99.24
2022-10-20T01:02:04.499Z,99.24
2022-10-20T01:03:04.441Z,99.34
2022-10-20T01:04:04.450Z,99.34
2022-10-20T01:05:04.420Z,99.24
2022-10-20T01:06:04.433Z,99.24
2022-10-20T01:07:04.403Z,99.34
2022-10-20T01:08:04.383Z,99.34
2022-10-20T01:09:04.566Z,99.44
2022-10-20T01:10:04.362Z,99.55
2022-10-20T01:11:04.366Z,99.65
2022-10-20T01:12:04.341Z,99.65
2022-10-20T01:13:04.332Z,99.76
2022-10-20T01:14:04.342Z,99.55
2022-10-20T01:15:04.310Z,99.55
2022-10-20T01:16:04.295Z,99.55
2022-10-20T01:17:04.293Z,99.65
2022-10-20T01:18:04.273Z,99.55
2022-10-20T01:19:04.293Z,99.55
2022-10-20T01:20:04.252Z,99.65
2022-10-20T01:21:04.244Z,99.65
2022-10-20T01:22:04.234Z,99.76
2022-10-20T01:23:04.223Z,99.86
2022-10-20T01:24:04.241Z,99.86
2022-10-20T01:25:04.202Z,99.86
2022-10-20T01:26:04.192Z,99.76
2022-10-20T01:27:04.184Z,99.86
2022-10-20T01:28:04.164Z,99.76
2022-10-20T01:29:04.183Z,99.65
2022-10-20T01:30:04.147Z,99.65
2022-10-20T01:31:04.136Z,99.44
2022-10-20T01:32:04.129Z,99.24
2022-10-20T01:33:04.114Z,99.19
2022-10-20T01:34:04.123Z,99.09
2022-10-20T01:35:04.094Z,99.14
2022-10-20T01:36:04.084Z,99.24
2022-10-20T01:37:04.073Z,99.24
2022-10-20T01:38:04.062Z,99.19
2022-10-20T01:39:04.075Z,99.14
2022-10-20T01:40:04.041Z,99.14
2022-10-20T01:41:04.024Z,99.14
2022-10-20T01:42:04.016Z,99.09
2022-10-20T01:43:04.015Z,99.04
2022-10-20T01:44:04.023Z,99.09
2022-10-20T01:45:04.013Z,98.99
2022-10-20T01:46:03.973Z,98.99
2022-10-20T01:47:03.964Z,99.04
2022-10-20T01:48:03.953Z,99.14
2022-10-20T01:49:03.943Z,99.14
2022-10-20T01:50:03.953Z,99.09
2022-10-20T01:51:03.921Z,98.93
2022-10-20T01:52:03.913Z,99.09
2022-10-20T01:53:03.900Z,98.93
2022-10-20T01:54:03.916Z,99.04
2022-10-20T01:55:03.884Z,99.04
2022-10-20T01:56:03.881Z,98.99
2022-10-20T01:57:03.863Z,98.88
2022-10-20T01:58:03.862Z,98.88
2022-10-20T01:59:03.872Z,98.79
2022-10-20T02:00:03.835Z,98.79
2022-10-20T02:01:03.838Z,98.79
2022-10-20T02:02:03.806Z,98.88
2022-10-20T02:03:03.795Z,98.79
2022-10-20T02:04:03.815Z,98.68
2022-10-20T02:05:03.763Z,98.68
2022-10-20T02:06:03.784Z,98.68
2022-10-20T02:07:03.755Z,98.68
2022-10-20T02:08:03.736Z,98.68
2022-10-20T02:09:03.813Z,98.62
2022-10-20T02:10:03.716Z,98.72
2022-10-20T02:11:03.707Z,98.83
2022-10-20T02:12:03.702Z,99.04
2022-10-20T02:13:03.686Z,99.14
2022-10-20T02:14:03.676Z,99.24
2022-10-20T02:15:03.693Z,99.34
2022-10-20T02:16:03.654Z,99.44
2022-10-20T02:17:03.646Z,99.34
2022-10-20T02:18:03.635Z,99.24
2022-10-20T02:19:03.639Z,99.34
2022-10-20T02:20:03.615Z,99.34
2022-10-20T02:21:03.595Z,99.34
2022-10-20T02:22:03.593Z,99.44
2022-10-20T02:23:03.575Z,99.44
2022-10-20T02:24:03.588Z,99.44
2022-10-20T02:25:03.555Z,99.70
2022-10-20T02:26:03.549Z,99.70
2022-10-20T02:27:03.529Z,99.80
2022-10-20T02:28:03.529Z,99.65
2022-10-20T02:29:03.543Z,99.55
2022-10-20T02:30:03.496Z,99.49
2022-10-20T02:31:03.486Z,99.60
2022-10-20T02:32:03.488Z,99.70
2022-10-20T02:33:03.476Z,99.80
2022-10-20T02:34:03.457Z,99.80
2022-10-20T02:35:06.539Z,99.99
2022-10-20T02:36:03.437Z,99.99
2022-10-20T02:37:03.472Z,99.99
2022-10-20T02:38:03.419Z,99.99
2022-10-20T02:39:03.408Z,99.99
2022-10-20T02:40:03.418Z,99.99
2022-10-20T02:41:03.385Z,99.99
2022-10-20T02:42:03.377Z,99.99
2022-10-20T02:43:03.355Z,99.99
2022-10-20T02:44:03.355Z,99.99
2022-10-20T02:45:03.337Z,99.99
2022-10-20T02:46:03.445Z,99.99
2022-10-20T02:47:03.316Z,99.99
2022-10-20T02:48:05.161Z,99.99
2022-10-20T02:49:03.288Z,99.90
2022-10-20T02:50:03.309Z,99.99
2022-10-20T02:51:03.298Z,99.99
2022-10-20T02:52:03.267Z,99.99
2022-10-20T02:53:03.258Z,99.99
2022-10-20T02:54:03.246Z,99.99
2022-10-20T02:55:03.226Z,99.99
2022-10-20T02:56:03.248Z,99.99
2022-10-20T02:57:03.215Z,99.90
2022-10-20T02:58:03.201Z,99.80
2022-10-20T02:59:03.185Z,99.80
2022-10-20T03:00:03.192Z,99.70
2022-10-20T03:01:03.187Z,99.49
2022-10-20T03:02:03.258Z,99.49
2022-10-20T03:03:03.139Z,99.39
2022-10-20T03:04:03.129Z,99.29
2022-10-20T03:05:03.119Z,99.29
2022-10-20T03:06:03.138Z,99.29
2022-10-20T03:07:03.119Z,99.29
2022-10-20T03:08:03.087Z,99.29
2022-10-20T03:09:03.127Z,99.29
2022-10-20T03:10:03.068Z,99.39
2022-10-20T03:11:03.077Z,99.49
2022-10-20T03:12:03.048Z,99.60
2022-10-20T03:13:03.038Z,99.70
2022-10-20T03:14:03.018Z,99.70
2022-10-20T03:15:03.017Z,99.60
2022-10-20T03:16:03.032Z,99.49
2022-10-20T03:17:02.989Z,99.39
2022-10-20T03:18:02.986Z,99.18
2022-10-20T03:19:05.311Z,99.29
2022-10-20T03:20:02.959Z,99.08
2022-10-20T03:21:02.949Z,99.08
2022-10-20T03:22:02.959Z,98.88
2022-10-20T03:23:02.928Z,98.97
2022-10-20T03:24:02.910Z,98.97
2022-10-20T03:25:02.909Z,98.97
2022-10-20T03:26:02.890Z,99.08
2022-10-20T03:27:02.887Z,99.08
2022-10-20T03:28:02.890Z,99.18
2022-10-20T03:29:02.866Z,99.18
2022-10-20T03:30:02.860Z,99.18
2022-10-20T03:31:02.838Z,99.18
2022-10-20T03:32:02.819Z,99.18
2022-10-20T03:33:02.842Z,99.08
2022-10-20T03:34:02.801Z,99.08
2022-10-20T03:35:02.800Z,98.97
2022-10-20T03:36:02.782Z,99.08
2022-10-20T03:37:02.770Z,98.97
2022-10-20T03:38:02.780Z,99.08
2022-10-20T03:39:02.758Z,98.97
2022-10-20T03:40:02.738Z,98.77
2022-10-20T03:41:02.778Z,98.67
2022-10-20T03:42:02.710Z,98.77
2022-10-20T03:43:02.740Z,98.77
2022-10-20T03:44:02.699Z,98.77
2022-10-20T03:45:02.690Z,98.67
2022-10-20T03:46:02.680Z,98.77
2022-10-20T03:47:02.662Z,98.88
2022-10-20T03:48:02.679Z,98.77
2022-10-20T03:49:02.639Z,98.67
2022-10-20T03:50:02.688Z,98.46
2022-10-20T03:51:02.628Z,98.42
2022-10-20T03:52:02.609Z,98.32
2022-10-20T03:53:02.609Z,98.32
2022-10-20T03:54:02.618Z,98.36
2022-10-20T03:55:02.584Z,98.36
2022-10-20T03:56:02.560Z,98.46
2022-10-20T03:57:06.799Z,98.57
2022-10-20T03:58:03.541Z,98.67
2022-10-20T04:00:02.540Z,98.67
2022-10-20T04:01:02.521Z,98.77
2022-10-20T04:02:02.577Z,98.67
2022-10-20T04:03:02.491Z,98.77
2022-10-20T04:04:02.481Z,98.77
2022-10-20T04:05:02.490Z,98.67
2022-10-20T04:06:02.450Z,98.67
2022-10-20T04:07:02.442Z,98.67
2022-10-20T04:08:02.434Z,98.67
2022-10-20T04:09:02.500Z,98.57
2022-10-20T04:10:02.462Z,98.46
2022-10-20T04:11:02.402Z,98.42
2022-10-20T04:12:02.392Z,98.32
2022-10-20T04:13:02.381Z,98.15
2022-10-20T04:14:02.370Z,98.25
2022-10-20T04:15:02.378Z,98.25
2022-10-20T04:16:02.355Z,98.36
2022-10-20T04:17:02.330Z,98.36
2022-10-20T04:18:02.321Z,98.57
2022-10-20T04:19:02.318Z,98.67
2022-10-20T04:20:02.321Z,98.77
2022-10-20T04:21:02.291Z,98.77
2022-10-20T04:22:02.283Z,98.67
2022-10-20T04:23:02.333Z,98.57
2022-10-20T04:24:02.324Z,98.57
2022-10-20T04:25:02.347Z,98.67
2022-10-20T04:26:02.323Z,98.67
2022-10-20T04:27:02.332Z,98.57
2022-10-20T04:28:02.393Z,98.67
2022-10-20T04:29:02.233Z,98.67
2022-10-20T04:30:02.266Z,98.67
2022-10-20T04:31:02.202Z,98.67
2022-10-20T04:32:02.162Z,98.77
2022-10-20T04:33:02.163Z,98.88
2022-10-20T04:34:02.151Z,99.02
2022-10-20T04:35:02.149Z,99.02
2022-10-20T04:36:02.165Z,99.23
2022-10-20T04:37:02.141Z,99.23
2022-10-20T04:38:02.101Z,99.33
2022-10-20T04:39:02.093Z,99.33
2022-10-20T04:40:02.082Z,99.18
2022-10-20T04:41:04.094Z,99.08
2022-10-20T04:42:02.083Z,99.08
2022-10-20T04:43:02.053Z,98.97
2022-10-20T04:44:02.042Z,98.88
2022-10-20T04:45:02.251Z,98.77
2022-10-20T04:46:05.296Z,98.57
2022-10-20T04:47:03.333Z,98.57
2022-10-20T04:48:02.215Z,98.67
2022-10-20T04:49:02.214Z,98.57
2022-10-20T04:50:02.288Z,98.46
2022-10-20T04:51:02.113Z,98.25
2022-10-20T04:52:01.971Z,98.36
2022-10-20T04:53:01.965Z,98.15
2022-10-20T04:54:02.051Z,98.25
2022-10-20T04:55:01.914Z,98.36
2022-10-20T04:56:01.913Z,98.46
2022-10-20T04:57:01.926Z,98.46
2022-10-20T04:58:01.892Z,98.36
2022-10-20T04:59:01.890Z,98.36
2022-10-20T05:00:01.886Z,98.46
2022-10-20T05:01:01.854Z,98.57
2022-10-20T05:02:01.891Z,98.67
2022-10-20T05:03:01.870Z,98.67
2022-10-20T05:04:01.833Z,98.67
2022-10-20T05:05:01.821Z,98.77
2022-10-20T05:06:01.825Z,98.88
2022-10-20T05:07:01.794Z,98.77
2022-10-20T05:08:01.784Z,98.77
2022-10-20T05:09:01.875Z,98.77
2022-10-20T05:10:01.752Z,98.88
2022-10-20T05:11:01.749Z,99.02
2022-10-20T05:12:01.817Z,99.02
2022-10-20T05:13:01.724Z,99.13
2022-10-20T05:14:01.722Z,99.13
2022-10-20T05:15:01.702Z,99.23
2022-10-20T05:16:01.684Z,99.23
2022-10-20T05:17:03.237Z,99.33
2022-10-20T05:18:01.666Z,99.33
2022-10-20T05:19:01.662Z,99.43
2022-10-20T05:20:01.642Z,99.54
2022-10-20T05:21:08.759Z,99.54
2022-10-20T05:22:02.647Z,99.54
2022-10-20T05:23:01.613Z,99.54
2022-10-20T05:24:01.596Z,99.64
2022-10-20T05:25:24.455Z,99.54
2022-10-20T05:26:02.601Z,99.54
2022-10-20T05:27:01.595Z,99.54
2022-10-20T05:28:01.593Z,99.54
2022-10-20T05:29:01.556Z,99.74
2022-10-20T05:30:01.576Z,99.64
2022-10-20T05:31:01.796Z,99.74
2022-10-20T05:32:01.536Z,99.64
2022-10-20T05:33:01.582Z,99.64
2022-10-20T05:34:01.493Z,99.64
2022-10-20T05:35:01.546Z,99.74
2022-10-20T05:36:01.487Z,99.85
2022-10-20T05:37:01.484Z,99.85
2022-10-20T05:38:01.443Z,99.74
2022-10-20T05:39:01.452Z,99.74
2022-10-20T05:40:01.457Z,99.74
2022-10-20T05:41:01.422Z,99.74
2022-10-20T05:42:01.425Z,99.74
2022-10-20T05:43:01.395Z,99.85
2022-10-20T05:44:01.394Z,99.74
2022-10-20T05:45:01.382Z,99.74
2022-10-20T05:46:01.356Z,99.85
2022-10-20T05:47:01.374Z,99.85
2022-10-20T05:48:01.335Z,99.85
2022-10-20T05:49:01.335Z,99.74
2022-10-20T05:50:01.323Z,99.85
2022-10-20T05:51:01.314Z,99.85
2022-10-20T05:52:01.460Z,99.74
2022-10-20T05:53:01.294Z,99.85
2022-10-20T05:54:01.286Z,99.74
2022-10-20T05:55:01.265Z,99.74
2022-10-20T05:56:01.255Z,99.74
2022-10-20T05:57:01.575Z,99.74
2022-10-20T05:58:01.266Z,99.74
2022-10-20T05:59:01.223Z,99.64
2022-10-20T06:00:01.251Z,99.64
2022-10-20T06:01:01.198Z,99.74
2022-10-20T06:02:01.207Z,99.74
2022-10-20T06:03:01.185Z,99.74
2022-10-20T06:04:01.165Z,99.74
2022-10-20T06:05:01.215Z,99.74
2022-10-20T06:06:01.143Z,99.74
2022-10-20T06:07:01.166Z,99.74
2022-10-20T06:08:01.121Z,99.70
2022-10-20T06:09:01.157Z,99.60
2022-10-20T06:10:01.108Z,99.60
2022-10-20T06:11:01.091Z,99.49
2022-10-20T06:12:01.135Z,99.39
2022-10-20T06:13:01.086Z,99.29
2022-10-20T06:14:01.058Z,99.39
2022-10-20T06:15:01.046Z,99.29
2022-10-20T06:16:01.035Z,99.18
2022-10-20T06:17:01.028Z,99.04
2022-10-20T06:18:01.043Z,98.83
2022-10-20T06:19:00.997Z,98.62
2022-10-20T06:20:01.003Z,98.52
2022-10-20T06:21:00.977Z,98.32
2022-10-20T06:22:03.994Z,98.21
2022-10-20T06:23:01.979Z,98.00
2022-10-20T06:24:00.947Z,97.80
2022-10-20T06:25:00.974Z,97.65
2022-10-20T06:26:03.830Z,97.55
2022-10-20T06:27:01.016Z,97.34
2022-10-20T06:28:00.925Z,97.24
2022-10-20T06:29:04.446Z,96.93
2022-10-20T06:30:00.886Z,96.62
2022-10-20T06:31:00.876Z,96.37
2022-10-20T06:32:00.921Z,96.27
2022-10-20T06:33:00.919Z,96.06
2022-10-20T06:34:00.839Z,95.86
2022-10-20T06:35:00.827Z,95.75
2022-10-20T06:36:00.829Z,95.55
2022-10-20T06:37:00.810Z,95.40
2022-10-20T06:38:00.815Z,95.30
2022-10-20T06:39:00.806Z,95.09
2022-10-20T06:40:00.777Z,94.99
2022-10-20T06:41:00.769Z,94.99
2022-10-20T06:42:00.748Z,94.78
2022-10-20T06:43:00.740Z,94.58
2022-10-20T06:44:00.730Z,94.37
2022-10-20T06:45:00.748Z,94.23
2022-10-20T06:46:00.714Z,94.12
2022-10-20T06:47:00.702Z,94.02
2022-10-20T06:48:00.717Z,93.92
2022-10-20T06:49:00.683Z,93.61
2022-10-20T06:50:00.697Z,93.51
2022-10-20T06:51:00.662Z,93.61
2022-10-20T06:52:00.697Z,93.51
2022-10-20T06:53:00.646Z,93.40
2022-10-20T06:54:00.628Z,93.36
2022-10-20T06:55:00.637Z,93.36
2022-10-20T06:56:00.616Z,93.36
2022-10-20T06:57:00.597Z,93.26
2022-10-20T06:58:00.586Z,93.36
2022-10-20T06:59:00.577Z,93.36
2022-10-20T07:00:00.588Z,93.36
2022-10-20T07:01:00.551Z,93.26
2022-10-20T07:02:00.615Z,93.16
2022-10-20T07:03:00.531Z,92.74
2022-10-20T07:04:00.520Z,92.50
2022-10-20T07:05:00.529Z,92.50
2022-10-20T07:06:00.508Z,92.50
2022-10-20T07:07:00.510Z,92.40
2022-10-20T07:08:00.481Z,92.19
2022-10-20T07:09:00.513Z,92.08
2022-10-20T07:10:00.478Z,92.08
2022-10-20T07:11:00.449Z,92.29
2022-10-20T07:12:00.439Z,92.19
2022-10-20T07:13:00.447Z,91.78
2022-10-20T07:14:00.417Z,91.63
2022-10-20T07:15:00.428Z,91.63
2022-10-20T07:16:00.392Z,91.63
2022-10-20T07:17:00.401Z,91.53
2022-10-20T07:18:00.370Z,91.53
2022-10-20T07:19:00.358Z,91.53
2022-10-20T07:20:00.379Z,91.53
2022-10-20T07:21:00.339Z,91.02
2022-10-20T07:22:00.330Z,90.87
2022-10-20T07:23:00.318Z,90.67
2022-10-20T07:24:00.310Z,90.46
2022-10-20T07:25:00.311Z,90.36
2022-10-20T07:26:00.291Z,90.26
2022-10-20T07:27:00.280Z,90.05
2022-10-20T07:28:00.267Z,89.81
2022-10-20T07:29:00.249Z,89.81
2022-10-20T07:30:00.260Z,90.01
2022-10-20T07:31:00.232Z,90.01
2022-10-20T07:32:02.022Z,89.90
2022-10-20T07:33:00.210Z,89.39
2022-10-20T07:34:13.273Z,89.29
2022-10-20T07:35:01.210Z,89.29
2022-10-20T07:36:00.182Z,89.36
2022-10-20T07:37:00.180Z,89.25
2022-10-20T07:38:00.160Z,89.45
2022-10-20T07:39:00.151Z,89.36
2022-10-20T07:40:00.162Z,89.36
2022-10-20T07:41:01.477Z,89.15
2022-10-20T07:42:00.121Z,88.94
2022-10-20T07:43:00.110Z,88.64
2022-10-20T07:44:00.096Z,88.49
2022-10-20T07:45:00.087Z,88.39
2022-10-20T07:46:00.113Z,88.08
2022-10-20T07:47:00.063Z,88.08
2022-10-20T07:48:00.070Z,88.08
2022-10-20T07:49:23.899Z,88.18
2022-10-20T07:50:01.034Z,88.04
2022-10-20T07:51:00.023Z,87.94
2022-10-20T07:52:00.042Z,87.84
2022-10-20T07:52:59.992Z,87.53
2022-10-20T07:54:00.746Z,87.32
2022-10-20T07:55:12.385Z,87.43
2022-10-20T07:56:00.960Z,87.29
2022-10-20T07:56:59.964Z,87.38
2022-10-20T07:57:59.973Z,87.29
2022-10-20T07:58:59.923Z,87.59
2022-10-20T07:59:59.935Z,87.70
2022-10-20T08:00:59.904Z,87.79
2022-10-20T08:02:00.393Z,87.49
2022-10-20T08:02:59.881Z,87.49
2022-10-20T08:03:59.875Z,87.38
2022-10-20T08:04:59.883Z,87.55
2022-10-20T08:05:59.851Z,87.24
2022-10-20T08:06:59.834Z,87.24
2022-10-20T08:07:59.846Z,87.55
2022-10-20T08:08:59.915Z,87.55
2022-10-20T08:09:59.827Z,87.10
2022-10-20T08:10:59.794Z,86.79
2022-10-20T08:11:59.783Z,86.59
2022-10-20T08:12:59.791Z,86.29
2022-10-20T08:13:59.761Z,86.08
2022-10-20T08:14:59.756Z,86.29
2022-10-20T08:16:03.837Z,86.29
2022-10-20T08:17:01.557Z,86.35
2022-10-20T08:17:59.714Z,86.35
2022-10-20T08:19:00.705Z,86.14
2022-10-20T08:20:02.838Z,86.04
2022-10-20T08:20:59.676Z,86.04
2022-10-20T08:21:59.676Z,85.63
2022-10-20T08:22:59.658Z,85.18
2022-10-20T08:23:59.660Z,84.88
2022-10-20T08:24:59.657Z,84.88
2022-10-20T08:25:59.632Z,85.08
2022-10-20T08:26:59.637Z,85.08
2022-10-20T08:27:59.670Z,85.18
2022-10-20T08:28:59.595Z,85.04
2022-10-20T08:30:06.282Z,84.83
2022-10-20T08:31:00.588Z,84.94
2022-10-20T08:31:59.566Z,84.63
2022-10-20T08:32:59.605Z,84.74
2022-10-20T08:33:59.538Z,84.90
2022-10-20T08:34:59.787Z,84.59
2022-10-20T08:35:59.525Z,84.39
2022-10-20T08:36:59.507Z,84.45
2022-10-20T08:37:59.499Z,84.34
2022-10-20T08:39:03.459Z,83.94
2022-10-20T08:40:00.501Z,83.63
2022-10-20T08:40:59.469Z,83.53
2022-10-20T08:42:14.712Z,83.29
2022-10-20T08:43:00.439Z,83.18
2022-10-20T08:43:59.435Z,83.09
2022-10-20T08:44:59.428Z,83.18
2022-10-20T08:45:59.449Z,83.09
2022-10-20T08:46:59.403Z,82.94
2022-10-20T08:47:59.396Z,83.15
2022-10-20T08:48:59.379Z,83.04
2022-10-20T08:49:59.371Z,82.74
2022-10-20T08:50:59.360Z,82.54
2022-10-20T08:51:59.369Z,82.40
2022-10-20T08:52:59.360Z,82.29
2022-10-20T08:53:59.327Z,82.09
2022-10-20T08:54:59.331Z,81.88
2022-10-20T08:55:59.321Z,81.74
2022-10-20T08:56:59.298Z,81.65
2022-10-20T08:57:59.301Z,81.74
2022-10-20T08:58:59.269Z,81.60
2022-10-20T08:59:59.270Z,81.40
2022-10-20T09:00:59.249Z,80.65
2022-10-20T09:01:59.370Z,79.90
2022-10-20T09:02:59.242Z,79.56
2022-10-20T09:03:59.226Z,79.36
2022-10-20T09:04:59.200Z,78.95
2022-10-20T09:05:59.195Z,79.02
2022-10-20T09:06:59.183Z,78.34
2022-10-20T09:07:59.210Z,78.75
2022-10-20T09:08:59.193Z,79.05
2022-10-20T09:09:59.156Z,78.61
2022-10-20T09:10:59.140Z,78.41
2022-10-20T09:11:59.132Z,78.20
2022-10-20T09:12:59.121Z,78.06
2022-10-20T09:13:59.132Z,77.83
2022-10-20T09:14:59.099Z,77.01
2022-10-20T09:15:59.084Z,76.03
2022-10-20T09:17:00.521Z,75.18
2022-10-20T09:17:59.062Z,74.95
2022-10-20T09:18:59.053Z,74.44
2022-10-20T09:19:59.061Z,74.77
2022-10-20T09:20:59.024Z,74.71
2022-10-20T09:21:59.022Z,75.15
2022-10-20T09:23:01.409Z,75.73
2022-10-20T09:24:00.011Z,75.62
2022-10-20T09:24:59.003Z,75.73
2022-10-20T09:25:58.977Z,75.82
2022-10-20T09:27:00.116Z,76.13
2022-10-20T09:27:58.983Z,76.43
2022-10-20T09:29:12.577Z,76.23
2022-10-20T09:29:59.957Z,76.23
2022-10-20T09:30:58.916Z,76.33
2022-10-20T09:32:01.416Z,76.74
2022-10-20T09:33:00.100Z,76.94
2022-10-20T09:33:58.887Z,77.04
2022-10-20T09:34:58.894Z,77.25
2022-10-20T09:35:58.867Z,76.94
2022-10-20T09:36:58.847Z,76.94
2022-10-20T09:37:58.847Z,76.74
2022-10-20T09:38:58.826Z,76.87
2022-10-20T09:39:58.844Z,76.98
2022-10-20T09:40:58.805Z,77.04
2022-10-20T09:41:58.873Z,77.04
2022-10-20T09:42:58.787Z,77.14
2022-10-20T09:43:58.780Z,77.04
2022-10-20T09:44:58.768Z,76.70
2022-10-20T09:45:58.757Z,76.16
2022-10-20T09:46:58.767Z,75.76
2022-10-20T09:47:58.735Z,75.07
2022-10-20T09:48:58.716Z,74.03
2022-10-20T09:50:01.176Z,73.79
2022-10-20T09:50:58.752Z,73.35
2022-10-20T09:51:58.712Z,71.87
2022-10-20T09:52:58.690Z,70.22
2022-10-20T09:53:58.673Z,69.65
2022-10-20T09:54:58.648Z,69.15
2022-10-20T09:55:58.640Z,69.45
2022-10-20T09:56:58.662Z,69.05
2022-10-20T09:57:58.619Z,68.74
2022-10-20T09:58:58.611Z,69.38
2022-10-20T10:00:04.522Z,70.09
2022-10-20T10:00:59.621Z,70.86
2022-10-20T10:01:58.581Z,71.30
2022-10-20T10:02:58.591Z,72.34
2022-10-20T10:03:58.560Z,72.85
2022-10-20T10:04:58.541Z,73.19
2022-10-20T10:05:58.531Z,73.59
2022-10-20T10:06:58.523Z,73.90
2022-10-20T10:07:58.510Z,74.10
2022-10-20T10:08:58.585Z,74.19
2022-10-20T10:10:00.350Z,74.19
2022-10-20T10:10:58.480Z,74.60
2022-10-20T10:11:58.473Z,74.77
2022-10-20T10:12:58.481Z,74.77
2022-10-20T10:13:58.474Z,74.37
2022-10-20T10:14:58.432Z,74.13
2022-10-20T10:15:58.423Z,74.22
2022-10-20T10:16:58.413Z,73.82
2022-10-20T10:17:58.403Z,73.62
2022-10-20T10:18:58.392Z,73.18
2022-10-20T10:19:58.404Z,72.68
2022-10-20T10:20:58.393Z,72.24
2022-10-20T10:21:58.354Z,72.04
2022-10-20T10:22:58.346Z,72.34
2022-10-20T10:23:58.336Z,72.98
2022-10-20T10:24:58.326Z,73.49
2022-10-20T10:26:02.056Z,73.69
2022-10-20T10:26:59.326Z,74.22
2022-10-20T10:27:58.286Z,74.63
2022-10-20T10:28:58.377Z,74.84
2022-10-20T10:29:58.266Z,75.04
2022-10-20T10:30:58.265Z,74.93
2022-10-20T10:31:58.267Z,74.93
2022-10-20T10:32:58.263Z,75.48
2022-10-20T10:33:58.226Z,75.48
2022-10-20T10:34:58.226Z,75.57
2022-10-20T10:35:58.236Z,76.39
2022-10-20T10:36:58.303Z,75.92
2022-10-20T10:37:58.358Z,76.02
2022-10-20T10:38:58.334Z,76.32
2022-10-20T10:39:58.303Z,76.52
2022-10-20T10:40:58.359Z,76.72
2022-10-20T10:42:58.217Z,77.47
2022-10-20T10:43:58.166Z,77.77
2022-10-20T10:44:58.167Z,77.87
2022-10-20T10:45:58.168Z,77.67
2022-10-20T10:46:58.193Z,77.87
2022-10-20T10:47:58.086Z,78.08
2022-10-20T10:48:58.063Z,78.38
2022-10-20T10:49:58.050Z,78.58
2022-10-20T10:50:58.119Z,78.78
2022-10-20T10:51:58.050Z,78.78
2022-10-20T10:52:58.020Z,79.08
2022-10-20T10:53:58.098Z,79.39
2022-10-20T10:54:58.001Z,79.63
2022-10-20T10:55:58.099Z,79.43
2022-10-20T10:56:58.058Z,79.63
2022-10-20T10:57:57.993Z,79.83
2022-10-20T10:58:57.955Z,79.83
2022-10-20T10:59:57.939Z,79.73
2022-10-20T11:00:57.978Z,80.07
2022-10-20T11:01:57.921Z,80.18
2022-10-20T11:02:58.091Z,80.38
2022-10-20T11:03:58.157Z,80.47
2022-10-20T11:04:57.884Z,80.38
2022-10-20T11:05:57.872Z,80.38
2022-10-20T11:06:58.268Z,80.24
2022-10-20T11:07:57.883Z,80.13
2022-10-20T11:08:57.962Z,80.24
2022-10-20T11:09:57.832Z,80.04
2022-10-20T11:10:57.827Z,80.13
2022-10-20T11:11:57.812Z,80.20
2022-10-20T11:12:57.824Z,79.90
2022-10-20T11:13:57.805Z,79.75
2022-10-20T11:14:57.775Z,79.46
2022-10-20T11:15:57.763Z,79.46
2022-10-20T11:16:57.754Z,79.66
2022-10-20T11:17:57.765Z,79.66
2022-10-20T11:18:57.757Z,79.75
2022-10-20T11:19:57.727Z,79.55
2022-10-20T11:20:57.715Z,79.55
2022-10-20T11:21:57.705Z,79.66
2022-10-20T11:22:57.716Z,79.66
2022-10-20T11:23:57.706Z,79.62
2022-10-20T11:24:57.667Z,79.62
2022-10-20T11:25:57.658Z,79.62
2022-10-20T11:26:57.646Z,79.82
2022-10-20T11:27:57.639Z,79.72
2022-10-20T11:28:57.627Z,79.55
2022-10-20T11:29:57.684Z,79.75
2022-10-20T11:30:57.644Z,79.86
2022-10-20T11:31:57.589Z,80.06
2022-10-20T11:32:57.578Z,79.86
2022-10-20T11:33:57.569Z,80.16
2022-10-20T11:34:57.583Z,80.57
2022-10-20T11:35:58.328Z,80.57
2022-10-20T11:36:57.537Z,80.77
2022-10-20T11:37:57.528Z,80.66
2022-10-20T11:38:57.560Z,80.77
2022-10-20T11:39:57.529Z,80.97
2022-10-20T11:40:57.491Z,80.80
2022-10-20T11:41:57.480Z,81.01
2022-10-20T11:42:57.473Z,81.21
2022-10-20T11:43:57.481Z,81.21
2022-10-20T11:44:57.469Z,81.31
2022-10-20T11:45:57.432Z,81.41
2022-10-20T11:46:57.428Z,81.62
2022-10-20T11:47:57.411Z,81.51
2022-10-20T11:49:00.322Z,81.62
2022-10-20T11:49:58.410Z,81.92
2022-10-20T11:50:57.450Z,82.26
2022-10-20T11:51:57.407Z,82.56
2022-10-20T11:52:57.362Z,82.46
2022-10-20T11:53:57.349Z,82.46
2022-10-20T11:54:57.371Z,82.46
2022-10-20T11:55:57.322Z,82.76
2022-10-20T11:56:57.323Z,82.87
2022-10-20T11:57:59.056Z,82.97
2022-10-20T11:58:57.294Z,83.17
2022-10-20T11:59:57.303Z,83.27
2022-10-20T12:00:59.555Z,83.37
2022-10-20T12:01:57.483Z,83.37
2022-10-20T12:02:57.253Z,83.37
2022-10-20T12:03:57.244Z,83.37
2022-10-20T12:04:57.257Z,83.37
2022-10-20T12:05:57.227Z,83.47
2022-10-20T12:06:57.213Z,83.68
2022-10-20T12:08:05.775Z,83.78
2022-10-20T12:08:58.251Z,83.88
2022-10-20T12:09:57.201Z,83.88
2022-10-20T12:10:57.165Z,83.98
2022-10-20T12:11:57.154Z,84.08
2022-10-20T12:12:57.145Z,84.12
2022-10-20T12:13:57.124Z,84.19
2022-10-20T12:14:57.147Z,84.42
2022-10-20T12:15:57.108Z,84.53
2022-10-20T12:16:57.098Z,84.73
2022-10-20T12:17:57.092Z,84.83
2022-10-20T12:18:57.110Z,84.83
2022-10-20T12:19:57.087Z,85.03
2022-10-20T12:20:57.087Z,85.24
2022-10-20T12:21:57.050Z,85.44
2022-10-20T12:22:57.037Z,85.64
2022-10-20T12:23:57.035Z,85.74
2022-10-20T12:24:57.048Z,85.94
2022-10-20T12:25:56.999Z,86.05
2022-10-20T12:26:56.989Z,86.96
2022-10-20T12:27:57.010Z,87.26
2022-10-20T12:28:56.968Z,87.26
2022-10-20T12:29:56.963Z,87.56
2022-10-20T12:30:56.983Z,87.97
2022-10-20T12:31:57.064Z,88.92
2022-10-20T12:32:56.920Z,89.43
2022-10-20T12:33:56.908Z,89.83
2022-10-20T12:34:56.898Z,90.14
2022-10-20T12:35:56.909Z,90.44
2022-10-20T12:36:56.913Z,91.05
2022-10-20T12:37:56.872Z,91.35
2022-10-20T12:38:56.869Z,91.46
2022-10-20T12:40:04.629Z,91.86
2022-10-20T12:40:56.839Z,92.36
2022-10-20T12:41:56.842Z,92.77
2022-10-20T12:42:56.812Z,93.38
2022-10-20T12:43:56.799Z,93.99
2022-10-20T12:44:56.790Z,94.09
2022-10-20T12:45:56.781Z,94.09
2022-10-20T12:46:56.791Z,94.49
2022-10-20T12:47:56.758Z,94.84
2022-10-20T12:48:56.750Z,94.74
2022-10-20T12:49:56.732Z,94.74
2022-10-20T12:50:56.727Z,94.84
2022-10-20T12:51:56.733Z,95.14
2022-10-20T12:52:56.705Z,95.04
2022-10-20T12:53:56.691Z,95.14